Stoughton, Massachusetts
Current Conditions -  °F | °C
As of 7:53 PM on Tuesday 25 Nov 2014 (Local Time) from KOWD Reporting Station
Clear Clear  
Wind Chill: 47°   Ceiling: Unl
Heat Index: 49°   Visibility: 10mi
Dew Point: 26°   Wind: 5mph
Humidity: 41%   Direction: 240°WSW
Pressure: 30.03"   Gusts: NA
Location:  42.13°N, 71.1°W
Report Text: KOWD 260053Z AUTO 24004KT 10SM CLR 09/M03 A3003 RMK AO2 SLP169 T00941033
Loading
Personal Weather Stations






























Interactive Weather Map New forecast layout! Learn more

10-Day Weather Forecast

Advertisements
Track Severe Weather on mobile